Time;durP1;ratioP1;P1;durP2;ratioP2;P2;SDS_P1;SDS_P2;PMS_P1;PMS_P2;Temp;Humidity;BMP_temperature;BMP_pressure;BME280_temperature;BME280_humidity;BME280_pressure;Samples;Min_cycle;Max_cycle;Signal;HPM_P1;HPM_P2
2023/10/01 00:00:26;;;;;;;12.20;3.95;;;;;;;;;;5075563;28;20028;-68
2023/10/01 00:02:52;;;;;;;9.60;3.78;;;;;;;;;;5074761;28;20092;-68
2023/10/01 00:05:22;;;;;;;11.73;3.67;;;;;;;;;;5074274;28;20028;-68
2023/10/01 00:07:49;;;;;;;11.02;3.70;;;;;;;;;;5075312;28;20559;-69
2023/10/01 00:10:15;;;;;;;17.73;4.50;;;;;;;;;;5075169;28;20037;-69
2023/10/01 00:12:46;;;;;;;11.85;4.03;;;;;;;;;;5074299;28;20036;-69
2023/10/01 00:15:12;;;;;;;11.55;3.30;;;;;;;;;;5075731;28;20784;-68
2023/10/01 00:17:40;;;;;;;14.75;3.75;;;;;;;;;;5075321;28;20031;-69
2023/10/01 00:20:18;;;;;;;13.55;4.45;;;;;;;;;;5075304;28;20036;-69
2023/10/01 00:22:50;;;;;;;10.75;3.92;;;;;;;;;;5075796;28;20038;-69
2023/10/01 00:25:17;;;;;;;12.60;4.00;;;;;;;;;;5075011;28;20036;-69
2023/10/01 00:27:43;;;;;;;11.13;3.63;;;;;;;;;;5074610;27;20077;-68
2023/10/01 00:30:10;;;;;;;10.10;4.18;;;;;;;;;;5074737;28;20055;-69
2023/10/01 00:32:40;;;;;;;14.32;3.67;;;;;;;;;;5076229;27;20059;-68
2023/10/01 00:35:06;;;;;;;13.52;3.63;;;;;;;;;;5063552;28;20028;-68
2023/10/01 00:37:33;;;;;;;13.60;4.22;;;;;;;;;;5076030;28;20020;-68
2023/10/01 00:40:00;;;;;;;10.50;3.67;;;;;;;;;;5075648;28;20040;-68
2023/10/01 00:42:29;;;;;;;12.77;3.58;;;;;;;;;;5074393;28;20371;-69
2023/10/01 00:44:57;;;;;;;13.15;3.40;;;;;;;;;;5074206;28;20086;-69
2023/10/01 00:47:25;;;;;;;12.45;3.67;;;;;;;;;;5074740;28;20877;-69
2023/10/01 00:49:51;;;;;;;9.95;3.30;;;;;;;;;;5074081;28;20040;-69
2023/10/01 00:52:18;;;;;;;10.00;4.30;;;;;;;;;;5074617;28;20035;-69
2023/10/01 00:54:45;;;;;;;9.88;4.55;;;;;;;;;;5074446;28;20467;-69
2023/10/01 00:57:11;;;;;;;13.15;4.40;;;;;;;;;;5074754;28;20156;-69
2023/10/01 00:59:37;;;;;;;11.27;4.93;;;;;;;;;;5073358;27;20965;-68
2023/10/01 01:02:06;;;;;;;13.73;4.68;;;;;;;;;;5073812;28;20031;-69
2023/10/01 01:04:36;;;;;;;12.63;4.57;;;;;;;;;;5074392;28;20077;-69
2023/10/01 01:07:14;;;;;;;13.45;4.63;;;;;;;;;;5075414;28;20048;-68
2023/10/01 01:09:40;;;;;;;15.00;4.03;;;;;;;;;;5073677;28;20035;-69
2023/10/01 01:12:07;;;;;;;12.82;4.38;;;;;;;;;;5074694;28;20039;-69
2023/10/01 01:14:36;;;;;;;12.73;4.45;;;;;;;;;;5073902;28;20050;-69
2023/10/01 01:17:05;;;;;;;11.95;4.47;;;;;;;;;;5075001;28;20723;-68
2023/10/01 01:19:34;;;;;;;14.85;3.58;;;;;;;;;;5074335;28;20042;-68
2023/10/01 01:22:02;;;;;;;13.70;3.90;;;;;;;;;;5074648;28;20023;-68
2023/10/01 01:24:32;;;;;;;15.57;4.38;;;;;;;;;;5073561;28;20028;-69
2023/10/01 01:27:05;;;;;;;14.07;5.15;;;;;;;;;;5073982;28;20020;-71
2023/10/01 01:29:40;;;;;;;16.30;4.25;;;;;;;;;;5074018;28;20985;-69
2023/10/01 01:32:13;;;;;;;12.90;3.95;;;;;;;;;;5073789;28;20044;-68
2023/10/01 01:34:48;;;;;;;12.93;4.68;;;;;;;;;;5073854;28;20717;-68
2023/10/01 01:37:58;;;;;;;10.57;4.13;;;;;;;;;;5074739;28;20035;-69
2023/10/01 01:42:49;;;;;;;14.23;4.88;;;;;;;;;;5074010;28;20044;-69
2023/10/01 01:45:19;;;;;;;12.90;4.90;;;;;;;;;;5074221;28;20040;-68
2023/10/01 01:47:45;;;;;;;12.45;4.88;;;;;;;;;;5073617;28;20027;-68
2023/10/01 01:50:19;;;;;;;13.52;5.22;;;;;;;;;;5074389;28;20028;-69
2023/10/01 01:52:51;;;;;;;12.32;5.20;;;;;;;;;;5074512;28;20039;-69
2023/10/01 01:55:25;;;;;;;12.98;4.78;;;;;;;;;;5073886;28;20059;-69
2023/10/01 01:58:10;;;;;;;13.13;5.47;;;;;;;;;;5072882;28;20036;-69
2023/10/01 02:01:01;;;;;;;16.77;5.63;;;;;;;;;;5078907;27;20031;-68
2023/10/01 02:03:26;;;;;;;14.57;5.30;;;;;;;;;;5080223;28;20046;-68
2023/10/01 02:05:52;;;;;;;13.30;5.20;;;;;;;;;;5080448;27;20603;-68
2023/10/01 02:08:24;;;;;;;13.73;5.38;;;;;;;;;;5079928;27;20129;-68
2023/10/01 02:10:51;;;;;;;14.68;6.03;;;;;;;;;;5079768;27;21929;-68
2023/10/01 02:13:17;;;;;;;13.85;5.80;;;;;;;;;;5080075;28;20032;-68
2023/10/01 02:15:45;;;;;;;13.82;6.25;;;;;;;;;;5080619;27;20040;-68
2023/10/01 02:18:13;;;;;;;16.52;6.55;;;;;;;;;;5079626;27;20116;-68
2023/10/01 02:20:40;;;;;;;17.00;6.65;;;;;;;;;;5079689;27;20059;-69
2023/10/01 02:23:12;;;;;;;15.15;6.65;;;;;;;;;;5079966;28;20027;-68
2023/10/01 02:25:39;;;;;;;14.63;5.93;;;;;;;;;;5080660;27;20055;-69
2023/10/01 02:28:11;;;;;;;15.98;6.30;;;;;;;;;;5080844;27;20491;-68
2023/10/01 02:30:37;;;;;;;15.30;5.97;;;;;;;;;;5079649;27;20050;-68
2023/10/01 02:33:16;;;;;;;12.63;6.15;;;;;;;;;;5080051;27;20039;-68
2023/10/01 02:35:42;;;;;;;14.35;7.30;;;;;;;;;;5080190;27;20036;-69
2023/10/01 02:38:36;;;;;;;17.00;6.97;;;;;;;;;;5080558;28;20036;-69
2023/10/01 02:40:57;;;;;;;16.48;6.65;;;;;;;;;;5079268;27;20055;-68
2023/10/01 02:43:33;;;;;;;19.83;7.75;;;;;;;;;;5075641;27;20130;-68
2023/10/01 02:45:59;;;;;;;18.88;7.78;;;;;;;;;;5079926;27;20043;-68
2023/10/01 02:48:28;;;;;;;14.98;6.82;;;;;;;;;;5080581;27;20036;-68
2023/10/01 02:50:54;;;;;;;18.23;8.40;;;;;;;;;;5080216;28;20036;-68
2023/10/01 02:53:22;;;;;;;15.13;7.63;;;;;;;;;;5079326;28;20475;-69
2023/10/01 02:55:51;;;;;;;20.52;7.57;;;;;;;;;;5080242;27;20493;-68
2023/10/01 02:58:27;;;;;;;19.40;7.75;;;;;;;;;;5080269;27;20024;-68
2023/10/01 03:00:54;;;;;;;19.35;7.47;;;;;;;;;;5079683;27;20035;-68
2023/10/01 03:03:31;;;;;;;16.45;7.63;;;;;;;;;;5079653;28;20024;-68
2023/10/01 03:05:57;;;;;;;18.08;8.57;;;;;;;;;;5080592;27;20427;-68
2023/10/01 03:11:09;;;;;;;18.25;8.35;;;;;;;;;;5076857;28;20054;-68
2023/10/01 03:13:36;;;;;;;17.25;7.82;;;;;;;;;;5076569;28;20031;-68
2023/10/01 03:18:54;;;;;;;15.55;7.43;;;;;;;;;;5077070;28;20038;-69
2023/10/01 03:24:08;;;;;;;15.95;7.70;;;;;;;;;;5076279;28;20055;-69
2023/10/01 03:26:34;;;;;;;18.58;8.00;;;;;;;;;;5076093;27;20036;-69
2023/10/01 03:29:34;;;;;;;16.52;7.43;;;;;;;;;;5075139;28;20056;-69
2023/10/01 03:32:27;;;;;;;12.82;7.10;;;;;;;;;;5074859;28;20059;-68
2023/10/01 03:34:46;;;;;;;18.15;8.15;;;;;;;;;;5075280;27;20044;-68
2023/10/01 03:37:19;;;;;;;13.93;7.28;;;;;;;;;;5075418;28;20039;-69
2023/10/01 03:39:46;;;;;;;16.93;7.67;;;;;;;;;;5075831;28;20052;-69
2023/10/01 03:42:13;;;;;;;17.52;8.10;;;;;;;;;;5075794;28;20273;-69
2023/10/01 03:47:26;;;;;;;16.73;8.38;;;;;;;;;;5076530;28;20811;-68
2023/10/01 03:49:54;;;;;;;17.13;7.28;;;;;;;;;;5076432;27;20039;-69
2023/10/01 03:52:21;;;;;;;14.45;7.60;;;;;;;;;;5076063;28;21310;-69
2023/10/01 03:57:27;;;;;;;14.55;6.45;;;;;;;;;;5075291;28;20625;-69
2023/10/01 03:59:53;;;;;;;16.05;7.65;;;;;;;;;;5076404;28;21061;-69
2023/10/01 04:05:21;;;;;;;13.00;6.15;;;;;;;;;;5075825;28;20077;-69
2023/10/01 04:07:48;;;;;;;14.85;7.50;;;;;;;;;;5075578;28;20564;-69
2023/10/01 04:10:38;;;;;;;16.00;7.10;;;;;;;;;;5076396;28;21775;-69
2023/10/01 04:13:16;;;;;;;14.35;7.13;;;;;;;;;;5073876;28;20265;-69
2023/10/01 04:15:48;;;;;;;16.48;7.40;;;;;;;;;;5075979;28;20629;-69
2023/10/01 04:23:32;;;;;;;14.63;7.00;;;;;;;;;;5075006;28;20034;-69
2023/10/01 04:26:04;;;;;;;16.33;8.13;;;;;;;;;;5075999;28;20031;-69
2023/10/01 04:28:47;;;;;;;14.18;6.50;;;;;;;;;;5074137;28;21384;-69
2023/10/01 04:31:16;;;;;;;13.87;7.03;;;;;;;;;;5075900;28;20063;-69
2023/10/01 04:33:43;;;;;;;12.88;6.55;;;;;;;;;;5074463;28;20038;-68
2023/10/01 04:36:16;;;;;;;17.20;7.05;;;;;;;;;;5076316;27;20505;-68
2023/10/01 04:38:43;;;;;;;13.77;7.70;;;;;;;;;;5074967;28;20030;-69
2023/10/01 04:41:13;;;;;;;15.00;7.07;;;;;;;;;;5075744;28;20339;-68
2023/10/01 04:43:51;;;;;;;18.75;7.65;;;;;;;;;;5055977;28;20462;-69
2023/10/01 04:46:18;;;;;;;15.57;6.63;;;;;;;;;;5074672;28;20040;-69
2023/10/01 04:48:45;;;;;;;13.05;6.47;;;;;;;;;;5074541;28;20047;-68
2023/10/01 04:51:12;;;;;;;12.82;6.50;;;;;;;;;;5075272;27;20118;-69
2023/10/01 04:53:39;;;;;;;13.90;6.53;;;;;;;;;;5074984;28;20024;-68
2023/10/01 04:56:05;;;;;;;16.60;6.70;;;;;;;;;;5074980;28;20032;-68
2023/10/01 04:58:32;;;;;;;12.88;6.75;;;;;;;;;;5074465;28;20028;-69
2023/10/01 05:00:59;;;;;;;15.48;6.85;;;;;;;;;;5074229;28;20063;-69
2023/10/01 05:03:44;;;;;;;12.57;6.63;;;;;;;;;;5074362;28;20068;-69
2023/10/01 05:06:14;;;;;;;12.00;5.93;;;;;;;;;;5075402;27;20020;-68
2023/10/01 05:08:43;;;;;;;15.52;6.43;;;;;;;;;;5074532;28;20051;-69
2023/10/01 05:11:13;;;;;;;16.95;7.30;;;;;;;;;;5074349;28;20035;-69
2023/10/01 05:13:43;;;;;;;14.95;6.70;;;;;;;;;;5074863;28;20024;-69
2023/10/01 05:16:13;;;;;;;13.00;6.78;;;;;;;;;;5073777;28;20501;-69
2023/10/01 05:18:39;;;;;;;12.57;6.72;;;;;;;;;;5074930;28;20028;-68
2023/10/01 05:21:12;;;;;;;13.07;6.80;;;;;;;;;;5074734;28;20037;-68
2023/10/01 05:23:39;;;;;;;20.20;7.30;;;;;;;;;;5073943;28;20032;-68
2023/10/01 05:26:08;;;;;;;12.35;6.38;;;;;;;;;;5074659;28;20055;-68
2023/10/01 05:28:36;;;;;;;14.55;7.18;;;;;;;;;;5074950;28;21867;-69
2023/10/01 05:31:06;;;;;;;13.93;7.68;;;;;;;;;;5074278;28;20532;-69
2023/10/01 05:33:35;;;;;;;16.48;7.47;;;;;;;;;;5073874;28;20028;-68
2023/10/01 05:36:05;;;;;;;19.65;8.32;;;;;;;;;;5074649;28;20467;-69
2023/10/01 05:38:34;;;;;;;16.42;7.75;;;;;;;;;;5074271;28;20036;-68
2023/10/01 05:41:04;;;;;;;13.95;7.38;;;;;;;;;;5073865;28;20027;-67
2023/10/01 05:43:43;;;;;;;15.70;6.88;;;;;;;;;;5073819;28;20024;-69
2023/10/01 05:46:09;;;;;;;13.40;7.20;;;;;;;;;;5073871;28;20023;-69
2023/10/01 05:48:39;;;;;;;12.88;7.50;;;;;;;;;;5073254;28;20035;-69
2023/10/01 05:51:11;;;;;;;15.38;7.72;;;;;;;;;;5072232;28;20100;-69
2023/10/01 05:53:38;;;;;;;15.23;7.03;;;;;;;;;;5071644;28;20050;-68
2023/10/01 05:56:07;;;;;;;15.70;7.25;;;;;;;;;;5071036;28;20121;-69
2023/10/01 05:58:36;;;;;;;14.52;6.82;;;;;;;;;;5071117;28;20027;-68
2023/10/01 06:01:06;;;;;;;14.05;6.95;;;;;;;;;;5072278;28;20070;-68
2023/10/01 06:03:33;;;;;;;14.52;7.43;;;;;;;;;;5072466;28;20461;-69
2023/10/01 06:06:08;;;;;;;11.95;6.82;;;;;;;;;;5073017;28;20947;-69
2023/10/01 06:08:41;;;;;;;18.42;7.95;;;;;;;;;;5073971;28;20176;-68
2023/10/01 06:11:13;;;;;;;15.70;6.88;;;;;;;;;;5072332;28;20555;-68
2023/10/01 06:13:48;;;;;;;16.00;7.32;;;;;;;;;;5072079;28;20044;-68
2023/10/01 06:16:15;;;;;;;15.90;7.72;;;;;;;;;;5072730;28;20051;-68
2023/10/01 06:18:42;;;;;;;12.55;6.75;;;;;;;;;;5071823;28;20024;-69
2023/10/01 06:21:11;;;;;;;11.90;6.18;;;;;;;;;;5071363;28;20070;-69
2023/10/01 06:23:50;;;;;;;13.32;6.95;;;;;;;;;;5073920;28;20413;-68
2023/10/01 06:26:18;;;;;;;12.23;6.22;;;;;;;;;;5073535;28;20077;-69
2023/10/01 06:28:44;;;;;;;15.90;6.82;;;;;;;;;;5073567;28;20080;-68
2023/10/01 06:31:10;;;;;;;14.20;6.90;;;;;;;;;;5073759;28;20395;-69
2023/10/01 06:33:38;;;;;;;13.95;6.35;;;;;;;;;;5072862;28;20039;-68
2023/10/01 06:36:19;;;;;;;16.30;7.20;;;;;;;;;;5073609;28;20085;-68
2023/10/01 06:38:47;;;;;;;14.45;6.63;;;;;;;;;;5073058;28;21021;-68
2023/10/01 06:41:18;;;;;;;17.13;7.80;;;;;;;;;;5074056;28;20032;-69
2023/10/01 06:43:48;;;;;;;13.63;6.93;;;;;;;;;;5072801;28;20046;-68
2023/10/01 06:46:19;;;;;;;12.73;6.68;;;;;;;;;;5073524;28;20944;-69
2023/10/01 06:48:47;;;;;;;14.13;6.90;;;;;;;;;;5076886;28;20039;-69
2023/10/01 06:51:14;;;;;;;14.95;7.65;;;;;;;;;;5078689;28;20405;-69
2023/10/01 06:53:47;;;;;;;14.70;6.78;;;;;;;;;;5076802;28;20749;-68
2023/10/01 06:56:21;;;;;;;12.93;6.22;;;;;;;;;;5077388;28;20039;-69
2023/10/01 06:59:12;;;;;;;15.45;7.15;;;;;;;;;;5076121;28;20036;-68
2023/10/01 07:01:42;;;;;;;14.88;6.90;;;;;;;;;;5076739;28;20032;-69
2023/10/01 07:04:11;;;;;;;13.07;6.60;;;;;;;;;;5076675;28;20075;-68
2023/10/01 07:06:38;;;;;;;13.20;6.68;;;;;;;;;;5077656;28;20028;-68
2023/10/01 07:09:06;;;;;;;15.13;6.97;;;;;;;;;;5076129;28;20043;-68
2023/10/01 07:11:33;;;;;;;14.18;6.85;;;;;;;;;;5077415;28;20438;-68
2023/10/01 07:14:01;;;;;;;14.90;6.75;;;;;;;;;;5075948;28;20028;-68
2023/10/01 07:16:39;;;;;;;14.52;7.43;;;;;;;;;;5077275;28;20066;-68
2023/10/01 07:19:06;;;;;;;15.10;6.05;;;;;;;;;;5076077;28;20024;-69
2023/10/01 07:21:36;;;;;;;16.33;6.80;;;;;;;;;;5058438;28;20044;-68
2023/10/01 07:24:04;;;;;;;15.60;7.72;;;;;;;;;;5075857;28;20032;-68
2023/10/01 07:26:30;;;;;;;14.35;7.03;;;;;;;;;;5076460;28;20769;-68
2023/10/01 07:28:56;;;;;;;14.25;6.57;;;;;;;;;;5075725;28;20032;-68
2023/10/01 07:31:24;;;;;;;14.82;7.00;;;;;;;;;;5057073;28;20032;-68
2023/10/01 07:33:53;;;;;;;12.65;6.30;;;;;;;;;;5077344;28;20036;-68
2023/10/01 07:36:19;;;;;;;18.05;7.45;;;;;;;;;;5076576;28;20034;-68
2023/10/01 07:38:56;;;;;;;18.63;7.60;;;;;;;;;;5076956;28;20770;-69
2023/10/01 07:41:27;;;;;;;14.07;6.53;;;;;;;;;;5076660;28;20581;-68
2023/10/01 07:43:56;;;;;;;18.40;7.35;;;;;;;;;;5076691;27;20151;-68
2023/10/01 07:46:22;;;;;;;17.08;7.30;;;;;;;;;;5076594;28;20032;-68
2023/10/01 07:48:51;;;;;;;15.40;6.95;;;;;;;;;;5076733;28;20035;-69
2023/10/01 07:51:26;;;;;;;14.77;6.60;;;;;;;;;;5073478;28;20063;-68
2023/10/01 07:53:53;;;;;;;13.35;6.47;;;;;;;;;;5075435;28;20032;-68
2023/10/01 07:56:23;;;;;;;12.98;6.15;;;;;;;;;;5075964;27;20557;-68
2023/10/01 08:01:37;;;;;;;16.83;6.82;;;;;;;;;;5074326;28;20497;-69
2023/10/01 08:04:19;;;;;;;16.35;6.43;;;;;;;;;;5076171;28;21055;-69
2023/10/01 08:06:49;;;;;;;15.88;7.15;;;;;;;;;;5058737;28;20020;-69
2023/10/01 08:09:17;;;;;;;13.23;6.13;;;;;;;;;;5075359;28;20116;-69
2023/10/01 08:11:58;;;;;;;15.98;6.22;;;;;;;;;;5075688;28;20170;-69
2023/10/01 08:14:33;;;;;;;15.52;6.88;;;;;;;;;;5075374;28;20173;-69
2023/10/01 08:17:00;;;;;;;19.17;6.90;;;;;;;;;;5074416;27;20086;-68
2023/10/01 08:19:43;;;;;;;15.73;7.05;;;;;;;;;;5075528;28;20040;-68
2023/10/01 08:22:22;;;;;;;14.45;6.03;;;;;;;;;;5075306;28;20039;-69
2023/10/01 08:24:49;;;;;;;21.27;6.50;;;;;;;;;;5074614;28;20055;-69
2023/10/01 08:28:08;;;;;;;19.42;6.85;;;;;;;;;;5073342;28;20034;-68
2023/10/01 08:30:38;;;;;;;17.15;6.93;;;;;;;;;;5073649;28;20085;-68
2023/10/01 08:33:18;;;;;;;16.00;7.15;;;;;;;;;;5072216;28;20035;-68
2023/10/01 08:35:37;;;;;;;16.33;7.22;;;;;;;;;;5074162;27;20134;-68
2023/10/01 08:38:15;;;;;;;11.68;6.00;;;;;;;;;;5074862;28;20036;-69
2023/10/01 08:40:41;;;;;;;18.77;7.68;;;;;;;;;;5075594;28;20027;-68
2023/10/01 08:43:11;;;;;;;11.50;6.13;;;;;;;;;;5075298;28;20120;-69
2023/10/01 08:45:38;;;;;;;15.70;6.68;;;;;;;;;;5076132;28;20040;-68
2023/10/01 08:48:08;;;;;;;15.30;7.07;;;;;;;;;;5075548;28;20093;-68
2023/10/01 08:50:40;;;;;;;15.65;6.68;;;;;;;;;;5076370;27;20051;-68
2023/10/01 08:53:12;;;;;;;12.75;6.50;;;;;;;;;;5074486;27;20379;-69
2023/10/01 08:55:39;;;;;;;14.30;7.18;;;;;;;;;;5075349;27;20052;-68
2023/10/01 08:58:15;;;;;;;12.27;6.03;;;;;;;;;;5075060;28;20312;-68
2023/10/01 09:00:48;;;;;;;17.13;7.38;;;;;;;;;;5075730;28;20055;-69
2023/10/01 09:03:26;;;;;;;;;;;;;;;;;;5075826;28;20115;-69
2023/10/01 09:06:01;;;;;;;15.23;6.60;;;;;;;;;;5075480;28;19927;-68
2023/10/01 09:08:43;;;;;;;15.27;6.35;;;;;;;;;;5073831;28;20055;-68
2023/10/01 09:11:17;;;;;;;15.80;7.15;;;;;;;;;;5074013;28;20035;-68
2023/10/01 09:14:15;;;;;;;16.85;7.90;;;;;;;;;;5073858;28;20115;-69
2023/10/01 09:16:45;;;;;;;17.48;7.40;;;;;;;;;;5073596;28;20035;-69
2023/10/01 09:19:30;;;;;;;17.15;7.55;;;;;;;;;;5072831;28;20063;-69
2023/10/01 09:22:04;;;;;;;17.98;6.88;;;;;;;;;;5073190;28;20032;-68
2023/10/01 09:24:34;;;;;;;15.93;7.70;;;;;;;;;;5073531;28;20595;-69
2023/10/01 09:27:30;;;;;;;16.45;7.43;;;;;;;;;;5073724;28;20027;-69
2023/10/01 09:32:54;;;;;;;19.27;6.97;;;;;;;;;;5074516;28;20498;-68
2023/10/01 09:35:39;;;;;;;17.63;7.65;;;;;;;;;;5074858;28;20069;-68
2023/10/01 09:38:10;;;;;;;16.85;7.88;;;;;;;;;;5072951;28;20118;-69
2023/10/01 09:40:38;;;;;;;18.55;7.80;;;;;;;;;;5074472;28;20047;-69
2023/10/01 09:43:04;;;;;;;21.83;7.82;;;;;;;;;;5073548;28;20090;-69
2023/10/01 09:45:37;;;;;;;18.80;7.15;;;;;;;;;;5073808;28;20032;-68
2023/10/01 09:48:10;;;;;;;18.45;7.13;;;;;;;;;;5074636;28;20115;-68
2023/10/01 09:50:41;;;;;;;18.80;7.53;;;;;;;;;;5074979;28;20786;-68
2023/10/01 09:53:15;;;;;;;21.45;7.28;;;;;;;;;;5074584;28;20712;-69
2023/10/01 09:55:47;;;;;;;20.77;8.50;;;;;;;;;;5080593;28;20432;-69
2023/10/01 09:58:20;;;;;;;19.42;7.32;;;;;;;;;;5080048;28;20028;-69
2023/10/01 10:00:48;;;;;;;21.13;8.27;;;;;;;;;;5078906;28;20038;-69
2023/10/01 10:03:14;;;;;;;19.42;7.75;;;;;;;;;;5080444;28;20027;-69
2023/10/01 10:05:41;;;;;;;22.38;8.38;;;;;;;;;;5059521;28;20097;-69
2023/10/01 10:08:13;;;;;;;22.88;8.57;;;;;;;;;;5080587;28;20688;-69
2023/10/01 10:10:49;;;;;;;20.23;7.57;;;;;;;;;;5080429;28;20044;-69
2023/10/01 10:13:47;;;;;;;18.02;6.88;;;;;;;;;;5081173;28;20032;-69
2023/10/01 10:19:21;;;;;;;20.10;7.15;;;;;;;;;;4969131;28;20493;-69
2023/10/01 10:24:35;;;;;;;14.27;7.25;;;;;;;;;;5084851;28;20111;-68
2023/10/01 10:27:15;;;;;;;18.67;8.02;;;;;;;;;;5084179;28;20104;-69
2023/10/01 10:29:56;;;;;;;15.70;6.78;;;;;;;;;;5083861;28;21632;-69
2023/10/01 10:32:26;;;;;;;19.65;7.85;;;;;;;;;;5083773;28;20024;-69
2023/10/01 10:35:04;;;;;;;17.60;8.02;;;;;;;;;;5083867;28;20024;-69
2023/10/01 10:37:37;;;;;;;21.15;8.52;;;;;;;;;;5084055;28;20031;-69
2023/10/01 10:40:12;;;;;;;17.38;7.28;;;;;;;;;;5084105;28;20130;-69
2023/10/01 10:42:47;;;;;;;19.00;7.38;;;;;;;;;;5063362;28;20078;-69
2023/10/01 10:45:19;;;;;;;22.25;7.70;;;;;;;;;;5083646;28;20545;-69
2023/10/01 10:48:04;;;;;;;15.43;7.15;;;;;;;;;;5083444;28;20032;-69
2023/10/01 10:50:53;;;;;;;16.45;7.20;;;;;;;;;;5082441;28;20140;-69
2023/10/01 10:53:24;;;;;;;21.65;7.80;;;;;;;;;;5073727;28;21011;-69
2023/10/01 10:55:56;;;;;;;20.73;7.50;;;;;;;;;;5070990;28;20030;-69
2023/10/01 10:58:26;;;;;;;19.20;7.93;;;;;;;;;;5083129;28;20954;-68
2023/10/01 11:00:53;;;;;;;18.75;8.27;;;;;;;;;;5083065;28;20466;-69
2023/10/01 11:03:41;;;;;;;18.25;7.68;;;;;;;;;;5083154;28;20074;-68
2023/10/01 11:06:17;;;;;;;21.00;7.55;;;;;;;;;;5083080;28;20081;-69
2023/10/01 11:08:52;;;;;;;16.20;7.20;;;;;;;;;;5083235;28;20047;-68
2023/10/01 11:11:21;;;;;;;15.23;7.40;;;;;;;;;;5082532;28;20533;-69
2023/10/01 11:13:48;;;;;;;16.33;6.47;;;;;;;;;;5083476;28;20109;-69
2023/10/01 11:16:15;;;;;;;19.73;8.05;;;;;;;;;;5082627;28;20028;-69
2023/10/01 11:18:45;;;;;;;18.80;7.22;;;;;;;;;;5083101;28;20031;-69
2023/10/01 11:21:20;;;;;;;19.60;8.02;;;;;;;;;;5083298;28;20032;-69
2023/10/01 11:23:55;;;;;;;16.52;6.80;;;;;;;;;;5083411;28;20040;-69
2023/10/01 11:26:29;;;;;;;16.60;7.28;;;;;;;;;;5082413;28;20610;-69
2023/10/01 11:29:10;;;;;;;20.52;7.75;;;;;;;;;;5083350;28;20032;-69
2023/10/01 11:31:38;;;;;;;18.40;7.70;;;;;;;;;;5082582;28;20031;-68
2023/10/01 11:34:21;;;;;;;17.90;7.65;;;;;;;;;;5082260;28;20834;-69
2023/10/01 11:36:56;;;;;;;;;;;;;;;;;;5083226;28;20035;-69
2023/10/01 11:39:38;;;;;;;18.80;7.85;;;;;;;;;;5082595;28;19912;-69
2023/10/01 11:42:19;;;;;;;15.50;7.22;;;;;;;;;;5082532;28;20047;-69
2023/10/01 11:44:52;;;;;;;17.50;7.32;;;;;;;;;;5082923;28;20051;-69
2023/10/01 11:47:31;;;;;;;18.08;7.63;;;;;;;;;;5082263;28;20055;-69
2023/10/01 11:50:09;;;;;;;17.65;7.53;;;;;;;;;;5081264;28;20065;-69
2023/10/01 11:52:36;;;;;;;18.30;7.95;;;;;;;;;;5071406;28;20761;-69
2023/10/01 11:55:18;;;;;;;22.58;8.23;;;;;;;;;;5081627;28;20037;-69
2023/10/01 11:57:51;;;;;;;21.15;8.05;;;;;;;;;;5081943;28;20031;-69
2023/10/01 12:00:32;;;;;;;15.57;6.57;;;;;;;;;;5081763;28;20036;-69
2023/10/01 12:02:58;;;;;;;20.23;7.68;;;;;;;;;;5082567;28;20117;-69
2023/10/01 12:05:38;;;;;;;16.10;7.78;;;;;;;;;;5081998;28;20128;-69
2023/10/01 12:08:04;;;;;;;18.33;7.35;;;;;;;;;;5066277;28;20119;-69
2023/10/01 12:10:36;;;;;;;18.58;7.25;;;;;;;;;;5082000;28;20060;-69
2023/10/01 12:13:03;;;;;;;19.05;8.20;;;;;;;;;;5082365;28;20028;-69
2023/10/01 12:15:40;;;;;;;18.38;7.88;;;;;;;;;;5081321;28;20020;-69
2023/10/01 12:18:15;;;;;;;15.52;7.55;;;;;;;;;;5081626;28;20032;-69
2023/10/01 12:20:47;;;;;;;17.95;7.55;;;;;;;;;;5080195;28;20701;-69
2023/10/01 12:23:14;;;;;;;19.02;7.85;;;;;;;;;;5081907;28;20049;-69
2023/10/01 12:25:47;;;;;;;19.75;8.35;;;;;;;;;;5080156;28;20028;-69
2023/10/01 12:28:29;;;;;;;18.27;7.65;;;;;;;;;;5080812;28;20945;-69
2023/10/01 12:31:01;;;;;;;15.70;7.20;;;;;;;;;;5081112;28;20040;-69
2023/10/01 12:33:40;;;;;;;21.27;8.67;;;;;;;;;;5081391;28;20023;-69
2023/10/01 12:36:58;;;;;;;15.50;7.22;;;;;;;;;;5080988;28;20027;-69
2023/10/01 12:41:47;;;;;;;18.15;8.10;;;;;;;;;;5081833;28;20034;-69
2023/10/01 12:44:27;;;;;;;16.08;7.93;;;;;;;;;;5079633;28;20062;-69
2023/10/01 12:46:54;;;;;;;15.02;7.28;;;;;;;;;;5081290;28;20035;-69
2023/10/01 12:49:20;;;;;;;18.55;8.30;;;;;;;;;;5081210;28;21690;-69
2023/10/01 12:51:53;;;;;;;17.80;7.93;;;;;;;;;;5081050;28;20039;-69
2023/10/01 12:54:22;;;;;;;19.63;7.60;;;;;;;;;;5081512;28;20050;-69
2023/10/01 12:57:02;;;;;;;14.77;8.38;;;;;;;;;;5081004;28;20039;-69
2023/10/01 12:59:41;;;;;;;19.08;8.32;;;;;;;;;;5080707;28;20028;-70
2023/10/01 13:07:42;;;;;;;18.35;8.05;;;;;;;;;;5079360;28;20051;-69
2023/10/01 13:10:08;;;;;;;19.08;8.40;;;;;;;;;;5080419;28;20046;-69
2023/10/01 13:15:29;;;;;;;16.17;8.43;;;;;;;;;;5081184;28;20092;-69
2023/10/01 13:18:04;;;;;;;18.73;8.00;;;;;;;;;;5081039;28;20035;-69
2023/10/01 13:20:46;;;;;;;20.08;9.18;;;;;;;;;;5081173;28;20040;-69
2023/10/01 13:23:12;;;;;;;18.65;8.32;;;;;;;;;;5081002;28;20039;-69
2023/10/01 13:25:46;;;;;;;17.25;7.35;;;;;;;;;;5080940;28;20023;-68
2023/10/01 13:28:19;;;;;;;19.05;8.30;;;;;;;;;;5081377;28;20020;-69
2023/10/01 13:33:53;;;;;;;16.10;8.30;;;;;;;;;;5080470;28;20039;-69
2023/10/01 13:36:13;;;;;;;20.80;9.38;;;;;;;;;;5080757;28;20159;-69
2023/10/01 13:39:13;;;;;;;20.10;8.80;;;;;;;;;;5070627;28;20042;-69
2023/10/01 14:09:09;;;;;;;19.67;9.05;;;;;;;;;;5079654;28;20882;-69
2023/10/01 14:11:39;;;;;;;19.98;9.20;;;;;;;;;;5059712;28;20532;-69
2023/10/01 14:14:07;;;;;;;17.20;8.18;;;;;;;;;;5079894;28;20696;-69
2023/10/01 14:16:33;;;;;;;18.13;8.10;;;;;;;;;;5080039;28;20032;-69
2023/10/01 14:19:13;;;;;;;23.95;9.10;;;;;;;;;;5080007;28;20042;-69
2023/10/01 14:21:39;;;;;;;18.98;8.80;;;;;;;;;;5080529;28;20035;-68
2023/10/01 14:24:21;;;;;;;17.52;8.43;;;;;;;;;;5079925;28;20055;-69
2023/10/01 14:26:50;;;;;;;17.70;8.30;;;;;;;;;;5080496;28;20030;-69
2023/10/01 14:29:22;;;;;;;17.98;7.50;;;;;;;;;;5079794;28;20027;-69
2023/10/01 14:31:57;;;;;;;19.25;8.25;;;;;;;;;;5080408;28;20035;-69
2023/10/01 14:34:23;;;;;;;17.52;8.63;;;;;;;;;;5079849;28;20030;-69
2023/10/01 14:36:53;;;;;;;19.58;8.88;;;;;;;;;;5080060;28;20024;-70
2023/10/01 14:39:19;;;;;;;15.52;8.23;;;;;;;;;;5079713;28;20032;-69
2023/10/01 14:41:56;;;;;;;20.50;9.20;;;;;;;;;;5079433;28;20051;-69
2023/10/01 14:44:26;;;;;;;19.73;9.40;;;;;;;;;;5078220;28;20032;-69
2023/10/01 14:46:54;;;;;;;18.58;9.00;;;;;;;;;;5079596;28;20032;-69
2023/10/01 14:49:23;;;;;;;20.20;8.85;;;;;;;;;;5079213;28;20050;-69
2023/10/01 14:51:53;;;;;;;19.23;8.40;;;;;;;;;;5079180;28;20958;-69
2023/10/01 14:54:19;;;;;;;17.88;8.98;;;;;;;;;;5079629;28;20035;-70
2023/10/01 14:56:54;;;;;;;19.45;9.00;;;;;;;;;;5079885;28;20023;-69
2023/10/01 14:59:30;;;;;;;24.35;9.43;;;;;;;;;;5078742;28;20030;-70
2023/10/01 15:01:56;;;;;;;17.88;8.32;;;;;;;;;;5079077;28;20032;-69
2023/10/01 15:04:29;;;;;;;19.70;9.13;;;;;;;;;;5079922;28;20043;-69
2023/10/01 15:06:57;;;;;;;23.88;8.57;;;;;;;;;;5078235;28;20024;-69
2023/10/01 15:09:29;;;;;;;17.60;8.70;;;;;;;;;;5082775;28;20096;-69
2023/10/01 15:11:57;;;;;;;17.42;8.43;;;;;;;;;;5082598;28;20114;-69
2023/10/01 15:14:27;;;;;;;20.45;9.63;;;;;;;;;;5081977;28;20088;-70
2023/10/01 15:17:07;;;;;;;15.70;8.18;;;;;;;;;;5083256;28;20073;-70
2023/10/01 15:19:46;;;;;;;19.70;8.90;;;;;;;;;;5081162;28;20020;-69
2023/10/01 15:22:16;;;;;;;19.05;8.52;;;;;;;;;;5082202;28;20024;-69
2023/10/01 15:24:43;;;;;;;17.30;8.85;;;;;;;;;;5081948;28;20051;-69
2023/10/01 15:27:24;;;;;;;19.85;8.43;;;;;;;;;;5081658;28;20035;-69
2023/10/01 15:29:55;;;;;;;16.20;8.23;;;;;;;;;;5080402;28;20039;-69
2023/10/01 15:32:21;;;;;;;18.25;7.78;;;;;;;;;;5082063;28;20027;-70
2023/10/01 15:34:56;;;;;;;20.05;8.50;;;;;;;;;;5082519;28;21068;-70
2023/10/01 15:37:22;;;;;;;18.02;8.63;;;;;;;;;;5083103;28;20513;-69
2023/10/01 15:39:48;;;;;;;18.80;9.00;;;;;;;;;;5060951;28;20557;-70
2023/10/01 15:42:19;;;;;;;17.60;8.60;;;;;;;;;;5083269;28;20648;-70
2023/10/01 15:44:49;;;;;;;18.75;8.57;;;;;;;;;;5082477;28;20372;-69
2023/10/01 15:50:21;;;;;;;17.52;8.07;;;;;;;;;;4989684;28;20950;-69
2023/10/01 15:52:48;;;;;;;19.75;8.48;;;;;;;;;;5065662;28;20047;-69
2023/10/01 15:55:40;;;;;;;18.17;7.70;;;;;;;;;;5081805;28;20036;-69
2023/10/01 15:58:06;;;;;;;19.05;7.90;;;;;;;;;;5082560;28;20077;-69
2023/10/01 16:00:34;;;;;;;18.92;8.60;;;;;;;;;;5081844;28;20035;-69
2023/10/01 16:03:06;;;;;;;16.73;7.70;;;;;;;;;;5082138;28;20023;-69
2023/10/01 16:05:39;;;;;;;20.35;8.90;;;;;;;;;;5082210;28;20032;-69
2023/10/01 16:08:26;;;;;;;20.50;8.25;;;;;;;;;;5079136;28;20052;-69
2023/10/01 16:11:01;;;;;;;19.70;8.20;;;;;;;;;;5073284;28;20042;-69
2023/10/01 16:13:29;;;;;;;15.20;8.23;;;;;;;;;;5068568;27;21298;-69
2023/10/01 16:16:07;;;;;;;17.42;8.48;;;;;;;;;;5074228;27;20051;-69
2023/10/01 16:18:37;;;;;;;17.65;7.47;;;;;;;;;;5072981;28;20024;-68